Archival Weather

Snohomish County (Paine Fld)

Everett, Washington (KPAE)

Report from: Friday, November 10, 2023 4:53 PM PST
Current time: Sunday, June 16, 2024 11:29 PM PDT

Current weather – Weather history – Daily summaries
Weather forecast

Temperature9.4°C (48.9°F)
Wind chill6.6°C (43.9°F)
Dew point5.6°C (42.1°F)
Winds 11 kts (5.7 m/s, 12.7 mph) South-Southeast (150°)
Visibility10 mi. (16.1 km)
Clouds Few clouds 2,100 ft. (640 m)
Ceiling: Broken clouds 3,400 ft. (1,036 m)
Overcast 4,300 ft. (1,311 m)
Altimeter30.05 in.Hg (1018 mB)
Relative humidity77 %
Density altitude-686 ft. (-209 m)
Sea-level pressure101.8 kPa (1018 mB, 30.05 in.Hg)
Remarks Automated weather observing station with precipitation discriminator
Flight conditions Visual Meteorological Conditions
Raw dataKPAE 110053Z 15011KT 10SM FEW021 BKN034 OVC043 09/06 A3005 RMK AO2 SLP176 T00940056
An error has occurred. This application may no longer respond until reloaded. Reload 🗙